createdAt,value
2022-11-22T00:01:19.446Z,156764.50
2022-11-22T00:03:48.054Z,156756.56
2022-11-22T00:06:16.834Z,156756.56
2022-11-22T00:08:44.811Z,156751.25
2022-11-22T00:11:13.095Z,156749.94
2022-11-22T00:13:40.924Z,156775.09
2022-11-22T00:16:08.840Z,156755.22
2022-11-22T00:18:37.187Z,156751.25
2022-11-22T00:21:08.852Z,156744.63
2022-11-22T00:23:36.614Z,156753.88
2022-11-22T00:26:07.220Z,156767.16
2022-11-22T00:28:34.957Z,156784.41
2022-11-22T00:31:03.096Z,156779.09
2022-11-22T00:33:31.249Z,156777.78
2022-11-22T00:35:59.081Z,156751.25
2022-11-22T00:38:26.866Z,156761.84
2022-11-22T00:41:08.347Z,156755.22
2022-11-22T00:43:37.000Z,156711.50
2022-11-22T00:46:05.251Z,156761.84
2022-11-22T00:48:32.967Z,156740.63
2022-11-22T00:51:01.413Z,156727.38
2022-11-22T00:53:29.410Z,156753.88
2022-11-22T00:55:58.065Z,156734.00
2022-11-22T00:58:26.193Z,156755.22
2022-11-22T01:00:56.788Z,156751.25
2022-11-22T01:03:25.901Z,156728.75
2022-11-22T01:05:54.784Z,156730.06
2022-11-22T01:08:23.083Z,156720.81
2022-11-22T01:10:59.130Z,156740.63
2022-11-22T01:13:28.440Z,156749.94
2022-11-22T01:16:09.724Z,156756.56
2022-11-22T01:18:41.008Z,156752.56
2022-11-22T01:21:09.850Z,156751.25
2022-11-22T01:23:38.830Z,156755.22
2022-11-22T01:26:09.307Z,156749.94
2022-11-22T01:28:37.179Z,156753.88
2022-11-22T01:31:05.870Z,156744.63
2022-11-22T01:33:34.250Z,156763.19
2022-11-22T01:36:02.793Z,156756.56
2022-11-22T01:38:30.861Z,156783.03
2022-11-22T01:40:59.292Z,156751.25
2022-11-22T01:43:28.014Z,156744.63
2022-11-22T01:46:23.355Z,156728.75
2022-11-22T01:48:59.978Z,156722.13
2022-11-22T01:51:32.514Z,156743.31
2022-11-22T01:54:05.835Z,156748.63
2022-11-22T01:56:34.929Z,156730.06
2022-11-22T01:59:06.151Z,156756.56
2022-11-22T02:01:35.039Z,156749.94
2022-11-22T02:04:04.595Z,156732.69
2022-11-22T02:06:51.099Z,156730.06
2022-11-22T02:09:19.401Z,156751.25
2022-11-22T02:11:49.793Z,156761.84
2022-11-22T02:14:21.863Z,156768.47
2022-11-22T02:16:50.280Z,156773.78
2022-11-22T02:19:37.035Z,156772.47
2022-11-22T02:22:26.420Z,156781.72
2022-11-22T02:24:58.208Z,156783.03
2022-11-22T02:27:26.865Z,156785.72
2022-11-22T02:29:54.594Z,156791.03
2022-11-22T02:32:24.404Z,156785.72
2022-11-22T02:34:52.684Z,156800.28
2022-11-22T02:37:25.491Z,156796.28
2022-11-22T02:39:58.137Z,156814.84
2022-11-22T02:42:27.107Z,156784.41
2022-11-22T02:44:55.467Z,156784.41
2022-11-22T02:47:23.569Z,156789.66
2022-11-22T02:49:54.310Z,156768.47
2022-11-22T02:52:22.630Z,156763.19
2022-11-22T02:54:50.511Z,156771.16
2022-11-22T02:57:18.851Z,156776.47
2022-11-22T02:59:46.614Z,156791.03
2022-11-22T03:02:14.572Z,156796.28
2022-11-22T03:04:42.534Z,156792.34
2022-11-22T03:07:10.895Z,156784.41
2022-11-22T03:09:38.598Z,156780.41
2022-11-22T03:12:07.017Z,156780.41
2022-11-22T03:14:34.696Z,156753.88
2022-11-22T03:17:02.647Z,156796.28
2022-11-22T03:19:30.728Z,156794.97
2022-11-22T03:21:59.044Z,156796.28
2022-11-22T03:24:26.720Z,156809.53
2022-11-22T03:26:55.116Z,156814.84
2022-11-22T03:29:22.849Z,156804.22
2022-11-22T03:31:53.942Z,156792.34
2022-11-22T03:34:21.994Z,156780.41
2022-11-22T03:36:50.069Z,156789.66
2022-11-22T03:39:22.471Z,156788.34
2022-11-22T03:41:50.508Z,156781.72
2022-11-22T03:44:18.346Z,156773.78
2022-11-22T03:46:46.681Z,156772.47
2022-11-22T03:49:14.534Z,156775.09
2022-11-22T03:51:43.053Z,156720.81
2022-11-22T03:54:10.731Z,156785.72
2022-11-22T03:56:38.955Z,156773.78
2022-11-22T03:59:06.883Z,156792.34
2022-11-22T04:01:35.039Z,156781.72
2022-11-22T04:04:02.946Z,156775.09
2022-11-22T04:06:31.527Z,156773.78
2022-11-22T04:08:59.297Z,156761.84
2022-11-22T04:11:27.328Z,156749.94
2022-11-22T04:14:13.959Z,156749.94
2022-11-22T04:16:42.414Z,156751.25
2022-11-22T04:19:10.249Z,156740.63
2022-11-22T04:21:38.643Z,156748.63
2022-11-22T04:24:26.120Z,156742.00
2022-11-22T04:26:54.915Z,156736.69
2022-11-22T04:29:23.196Z,156744.63
2022-11-22T04:32:10.746Z,156740.63
2022-11-22T04:34:38.502Z,156747.25
2022-11-22T04:37:07.066Z,156732.69
2022-11-22T04:39:34.785Z,156748.63
2022-11-22T04:42:21.388Z,156727.38
2022-11-22T04:44:49.121Z,156727.38
2022-11-22T04:47:37.415Z,156747.25
2022-11-22T04:50:27.487Z,156723.44
2022-11-22T04:52:57.580Z,156704.88
2022-11-22T04:55:25.750Z,156714.19
2022-11-22T04:57:59.228Z,156696.94
2022-11-22T05:00:29.118Z,156703.56
2022-11-22T05:02:57.928Z,156716.81
2022-11-22T05:05:26.435Z,156696.94
2022-11-22T05:07:55.136Z,156675.75
2022-11-22T05:10:26.712Z,156678.38
2022-11-22T05:12:56.442Z,156690.31
2022-11-22T05:15:24.208Z,156700.94
2022-11-22T05:17:52.028Z,156699.63
2022-11-22T05:20:19.755Z,156687.69
2022-11-22T05:23:06.825Z,156687.69
2022-11-22T05:25:35.301Z,156686.38
2022-11-22T05:28:03.950Z,156674.44
2022-11-22T05:30:31.734Z,156666.50
2022-11-22T05:32:59.765Z,156685.00
2022-11-22T05:35:28.150Z,156681.06
2022-11-22T05:37:57.161Z,156690.31
2022-11-22T05:40:25.822Z,156675.75
2022-11-22T05:42:54.431Z,156686.38
2022-11-22T05:45:22.895Z,156666.50
2022-11-22T05:47:51.542Z,156693.00
2022-11-22T05:50:19.344Z,156693.00
2022-11-22T05:52:55.828Z,156707.56
2022-11-22T05:55:23.599Z,156708.88
2022-11-22T05:57:52.011Z,156716.81
2022-11-22T06:00:19.995Z,156698.25
2022-11-22T06:02:48.414Z,156691.63
2022-11-22T06:05:16.361Z,156727.38
2022-11-22T06:07:46.739Z,156730.06
2022-11-22T06:10:15.141Z,156722.13
2022-11-22T06:12:43.862Z,156732.69
2022-11-22T06:15:11.602Z,156730.06
2022-11-22T06:17:39.616Z,156742.00
2022-11-22T06:20:11.081Z,156727.38
2022-11-22T06:22:40.046Z,156740.63
2022-11-22T06:25:08.532Z,156727.38
2022-11-22T06:27:36.781Z,156743.31
2022-11-22T06:30:04.825Z,156711.50
2022-11-22T06:32:34.439Z,156720.81
2022-11-22T06:35:03.776Z,156731.38
2022-11-22T06:37:32.583Z,156724.75
2022-11-22T06:40:00.270Z,156730.06
2022-11-22T06:42:28.717Z,156734.00
2022-11-22T06:44:56.627Z,156723.44
2022-11-22T06:47:25.679Z,156734.00
2022-11-22T06:49:53.571Z,156694.31
2022-11-22T06:52:21.810Z,156743.31
2022-11-22T06:54:49.637Z,156732.69
2022-11-22T06:57:17.499Z,156731.38
2022-11-22T06:59:45.191Z,156759.19
2022-11-22T07:02:13.393Z,156767.16
2022-11-22T07:05:02.292Z,156735.38
2022-11-22T07:07:30.146Z,156740.63
2022-11-22T07:09:58.093Z,156735.38
2022-11-22T07:12:26.372Z,156749.94
2022-11-22T07:14:54.173Z,156730.06
2022-11-22T07:17:22.518Z,156744.63
2022-11-22T07:19:50.379Z,156761.84
2022-11-22T07:22:18.844Z,156728.75
2022-11-22T07:24:46.775Z,156724.75
2022-11-22T07:27:15.125Z,156732.69
2022-11-22T07:29:42.956Z,156742.00
2022-11-22T07:32:11.512Z,156744.63
2022-11-22T07:34:39.431Z,156714.19
2022-11-22T07:37:09.356Z,156732.69
2022-11-22T07:39:37.287Z,156722.13
2022-11-22T07:42:05.845Z,156735.38
2022-11-22T07:44:33.781Z,156749.94
2022-11-22T07:47:02.136Z,156739.31
2022-11-22T07:49:30.346Z,156745.94
2022-11-22T07:51:59.768Z,156747.25
2022-11-22T07:54:27.695Z,156759.19
2022-11-22T07:56:55.917Z,156745.94
2022-11-22T07:59:23.668Z,156743.31
2022-11-22T08:01:52.272Z,156761.84
2022-11-22T08:04:20.054Z,156740.63
2022-11-22T08:06:48.347Z,156730.06
2022-11-22T08:09:16.110Z,156719.44
2022-11-22T08:11:44.464Z,156727.38
2022-11-22T08:14:12.541Z,156764.50
2022-11-22T08:16:41.016Z,156759.19
2022-11-22T08:19:08.720Z,156755.22
2022-11-22T08:21:37.307Z,156767.16
2022-11-22T08:24:05.684Z,156760.50
2022-11-22T08:26:34.970Z,156760.50
2022-11-22T08:29:14.042Z,156775.09
2022-11-22T08:31:42.829Z,156776.47
2022-11-22T08:34:10.738Z,156781.72
2022-11-22T08:36:39.123Z,156806.91
2022-11-22T08:39:07.335Z,156796.28
2022-11-22T08:41:35.806Z,156817.50
2022-11-22T08:44:04.148Z,156814.84
2022-11-22T08:46:32.201Z,156834.75
2022-11-22T08:49:00.089Z,156848.00
2022-11-22T08:51:28.475Z,156828.13
2022-11-22T08:53:56.924Z,156844.00
2022-11-22T08:56:25.297Z,156845.31
2022-11-22T08:58:53.222Z,156854.63
2022-11-22T09:01:23.908Z,156821.47
2022-11-22T09:03:52.163Z,156833.44
2022-11-22T09:09:35.736Z,156870.53
2022-11-22T09:11:57.921Z,156853.25
2022-11-22T09:14:25.607Z,156862.56
2022-11-22T09:16:53.972Z,156862.56
2022-11-22T09:19:21.981Z,156873.16
2022-11-22T09:21:50.296Z,156886.41
2022-11-22T09:24:18.455Z,156883.78
2022-11-22T09:26:47.181Z,156874.50
2022-11-22T09:29:16.100Z,156857.25
2022-11-22T09:31:44.582Z,156854.63
2022-11-22T09:34:12.592Z,156838.69
2022-11-22T09:36:40.928Z,156837.38
2022-11-22T09:39:09.730Z,156849.31
2022-11-22T09:42:06.989Z,156859.88
2022-11-22T09:44:40.983Z,156834.75
2022-11-22T09:47:36.010Z,156858.56
2022-11-22T09:50:22.334Z,156844.00
2022-11-22T09:52:56.589Z,156851.94
2022-11-22T09:55:32.747Z,156854.63
2022-11-22T09:58:32.449Z,156854.63
2022-11-22T10:01:15.046Z,156854.63
2022-11-22T10:03:45.753Z,156869.19
2022-11-22T10:06:21.789Z,156859.88
2022-11-22T10:09:02.436Z,156861.25
2022-11-22T10:11:37.236Z,156845.31
2022-11-22T10:14:23.553Z,156851.94
2022-11-22T10:16:58.371Z,156866.53
2022-11-22T10:19:35.072Z,156894.34
2022-11-22T10:22:03.146Z,156897.03
2022-11-22T10:24:31.524Z,156893.03
2022-11-22T10:27:00.800Z,156893.03
2022-11-22T10:29:36.645Z,156915.56
2022-11-22T10:32:19.749Z,156926.19
2022-11-22T10:35:07.035Z,156939.44
2022-11-22T10:38:10.015Z,156932.81
2022-11-22T10:41:12.246Z,156922.19
2022-11-22T10:43:51.874Z,156920.88
2022-11-22T10:46:56.362Z,156930.13
2022-11-22T10:50:04.045Z,156952.72
2022-11-22T10:52:34.963Z,156948.72
2022-11-22T10:55:24.051Z,156976.56
2022-11-22T10:58:09.431Z,156968.59
2022-11-22T11:00:41.400Z,156992.44
2022-11-22T11:03:36.971Z,156989.81
2022-11-22T11:06:56.831Z,157024.28
2022-11-22T11:10:09.563Z,157053.47
2022-11-22T11:12:29.763Z,157098.56
2022-11-22T11:15:03.126Z,157080.00
2022-11-22T11:17:34.301Z,157076.00
2022-11-22T11:20:05.986Z,157069.34
2022-11-22T11:23:12.616Z,157076.00
2022-11-22T11:25:44.115Z,157087.94
2022-11-22T11:28:13.695Z,157097.22
2022-11-22T11:31:06.918Z,157073.34
2022-11-22T11:33:39.804Z,157058.78
2022-11-22T11:36:11.752Z,157066.72
2022-11-22T11:38:42.720Z,157061.41
2022-11-22T11:41:18.517Z,157046.81
2022-11-22T11:43:47.050Z,157050.81
2022-11-22T11:46:17.692Z,157044.19
2022-11-22T11:48:45.606Z,157048.16
2022-11-22T11:51:18.110Z,157056.09
2022-11-22T11:53:52.491Z,157060.09
2022-11-22T11:56:47.786Z,157065.41
2022-11-22T11:59:18.516Z,157037.56
2022-11-22T12:02:11.703Z,157038.88
2022-11-22T12:04:53.771Z,157041.50
2022-11-22T12:07:31.621Z,157037.56
2022-11-22T12:09:59.393Z,157040.19
2022-11-22T12:12:27.930Z,157050.81
2022-11-22T12:15:18.190Z,157022.97
2022-11-22T12:17:53.203Z,157057.47
2022-11-22T12:20:26.584Z,157053.47
2022-11-22T12:23:11.072Z,157072.03
2022-11-22T12:25:40.751Z,157091.94
2022-11-22T12:28:28.905Z,157069.34
2022-11-22T12:31:14.853Z,157072.03
2022-11-22T12:33:49.125Z,157085.31
2022-11-22T12:36:22.624Z,157083.94
2022-11-22T12:38:52.255Z,157093.25
2022-11-22T12:41:22.065Z,157080.00
2022-11-22T12:43:56.254Z,157095.88
2022-11-22T12:46:28.343Z,157114.47
2022-11-22T12:48:59.891Z,157118.44
2022-11-22T12:51:33.768Z,157119.78
2022-11-22T12:54:05.885Z,157111.78
2022-11-22T12:57:01.360Z,157121.09
2022-11-22T12:59:35.976Z,157087.94
2022-11-22T13:02:25.504Z,157072.03
2022-11-22T13:04:58.869Z,157110.47
2022-11-22T13:07:36.218Z,157111.78
2022-11-22T13:10:55.922Z,157082.63
2022-11-22T13:13:28.540Z,157061.41
2022-11-22T13:15:59.335Z,157094.56
2022-11-22T13:18:33.159Z,157093.25
2022-11-22T13:21:08.535Z,157081.31
2022-11-22T13:24:04.738Z,157064.09
2022-11-22T13:26:35.216Z,157058.78
2022-11-22T13:29:10.277Z,157044.19
2022-11-22T13:31:41.051Z,157066.72
2022-11-22T13:34:24.933Z,157058.78
2022-11-22T13:36:55.642Z,157083.94
2022-11-22T13:39:27.052Z,157074.69
2022-11-22T13:41:58.679Z,157064.09
2022-11-22T13:44:33.008Z,157050.81
2022-11-22T13:47:05.909Z,157050.81
2022-11-22T13:49:49.344Z,157057.47
2022-11-22T13:52:17.919Z,157066.72
2022-11-22T13:54:48.823Z,157072.03
2022-11-22T13:57:40.139Z,157052.13
2022-11-22T14:00:17.386Z,157042.88
2022-11-22T14:02:55.206Z,157042.88
2022-11-22T14:05:41.658Z,157038.88
2022-11-22T14:08:42.610Z,157022.97
2022-11-22T14:11:40.665Z,157025.59
2022-11-22T14:14:20.083Z,157011.03
2022-11-22T14:16:54.485Z,156995.13
2022-11-22T14:19:38.187Z,156991.13
2022-11-22T14:22:21.249Z,156985.81
2022-11-22T14:25:17.394Z,156985.81
2022-11-22T14:27:59.198Z,156960.66
2022-11-22T14:30:53.115Z,156968.59
2022-11-22T14:33:26.667Z,156936.78
2022-11-22T14:36:07.701Z,156928.81
2022-11-22T14:38:41.662Z,156912.94
2022-11-22T14:41:43.882Z,156928.81
2022-11-22T14:44:16.690Z,156916.94
2022-11-22T14:46:54.135Z,156926.19
2022-11-22T14:49:32.889Z,156942.09
2022-11-22T14:52:02.294Z,156938.13
2022-11-22T14:54:45.797Z,156946.09
2022-11-22T14:57:19.577Z,156939.44
2022-11-22T15:00:06.841Z,156924.88
2022-11-22T15:03:09.838Z,156902.34
2022-11-22T15:09:11.235Z,156887.72
2022-11-22T15:09:46.886Z,156867.88
2022-11-22T15:12:35.980Z,156865.19
2022-11-22T15:59:43.762Z,156826.81
2022-11-22T16:02:18.994Z,156785.72
2022-11-22T16:06:04.559Z,156775.09
2022-11-22T16:07:51.434Z,156787.03
2022-11-22T16:10:22.344Z,156783.03
2022-11-22T16:12:52.095Z,156777.78
2022-11-22T16:15:29.539Z,156776.47
2022-11-22T16:18:26.794Z,156781.72
2022-11-22T16:21:16.565Z,156776.47
2022-11-22T16:23:46.066Z,156791.03
2022-11-22T16:26:32.842Z,156775.09
2022-11-22T16:29:20.459Z,156761.84
2022-11-22T16:31:48.380Z,156780.41
2022-11-22T16:34:17.020Z,156781.72
2022-11-22T16:36:45.013Z,156784.41
2022-11-22T16:39:13.449Z,156748.63
2022-11-22T16:41:42.085Z,156763.19
2022-11-22T16:44:14.754Z,156745.94
2022-11-22T16:46:43.972Z,156749.94
2022-11-22T16:49:19.120Z,156744.63
2022-11-22T16:51:47.692Z,156720.81
2022-11-22T16:54:18.794Z,156734.00
2022-11-22T16:56:47.956Z,156730.06
2022-11-22T16:59:17.548Z,156728.75
2022-11-22T17:01:45.704Z,156698.25
2022-11-22T17:04:23.280Z,156730.06
2022-11-22T17:06:52.234Z,156710.19
2022-11-22T17:09:21.118Z,156671.78
2022-11-22T17:11:50.080Z,156699.63
2022-11-22T17:14:19.339Z,156722.13
2022-11-22T17:16:47.548Z,156710.19
2022-11-22T17:22:07.266Z,156716.81
2022-11-22T17:24:35.759Z,156715.50
2022-11-22T17:27:04.267Z,156740.63
2022-11-22T17:29:49.857Z,156714.19
2022-11-22T17:32:19.558Z,156718.13
2022-11-22T17:34:47.753Z,156722.13
2022-11-22T17:37:15.984Z,156735.38
2022-11-22T17:39:44.666Z,156732.69
2022-11-22T17:42:12.808Z,156722.13
2022-11-22T17:44:41.214Z,156730.06
2022-11-22T17:47:09.301Z,156761.84
2022-11-22T17:49:37.919Z,156753.88
2022-11-22T17:52:05.960Z,156747.25
2022-11-22T17:54:34.720Z,156722.13
2022-11-22T17:57:02.614Z,156714.19
2022-11-22T17:59:31.225Z,156690.31
2022-11-22T18:01:59.747Z,156693.00
2022-11-22T18:04:28.216Z,156693.00
2022-11-22T18:06:56.839Z,156677.06
2022-11-22T18:09:24.857Z,156669.13
2022-11-22T18:11:52.799Z,156678.38
2022-11-22T18:14:21.175Z,156681.06
2022-11-22T18:16:50.938Z,156669.13
2022-11-22T18:19:28.536Z,156682.38
2022-11-22T18:22:14.443Z,156675.75
2022-11-22T18:25:07.265Z,156686.38
2022-11-22T18:27:42.679Z,156683.69
2022-11-22T18:30:11.994Z,156686.38
2022-11-22T18:32:39.935Z,156665.16
2022-11-22T18:35:08.934Z,156696.94
2022-11-22T18:37:37.447Z,156704.88
2022-11-22T18:40:06.285Z,156708.88
2022-11-22T18:42:35.669Z,156696.94
2022-11-22T18:45:04.372Z,156714.19
2022-11-22T18:47:32.035Z,156711.50
2022-11-22T18:50:00.729Z,156724.75
2022-11-22T18:52:28.777Z,156724.75
2022-11-22T18:54:57.069Z,156723.44
2022-11-22T18:57:24.762Z,156707.56
2022-11-22T18:59:53.309Z,156716.81
2022-11-22T19:02:26.105Z,156716.81
2022-11-22T19:04:55.006Z,156727.38
2022-11-22T19:07:23.518Z,156724.75
2022-11-22T19:09:52.156Z,156718.13
2022-11-22T19:12:20.086Z,156712.81
2022-11-22T19:14:48.780Z,156734.00
2022-11-22T19:17:21.694Z,156724.75
2022-11-22T19:19:57.245Z,156734.00
2022-11-22T19:22:28.402Z,156712.81
2022-11-22T19:24:57.221Z,156749.94
2022-11-22T19:27:25.710Z,156743.31
2022-11-22T19:29:54.288Z,156735.38
2022-11-22T19:32:22.352Z,156716.81
2022-11-22T19:34:51.710Z,156719.44
2022-11-22T19:37:19.538Z,156719.44
2022-11-22T19:39:49.059Z,156730.06
2022-11-22T19:42:17.955Z,156734.00
2022-11-22T19:44:46.537Z,156724.75
2022-11-22T19:47:14.760Z,156727.38
2022-11-22T19:49:43.136Z,156736.69
2022-11-22T19:52:11.437Z,156730.06
2022-11-22T19:54:39.455Z,156756.56
2022-11-22T19:57:07.786Z,156753.88
2022-11-22T19:59:37.790Z,156753.88
2022-11-22T20:02:06.341Z,156748.63
2022-11-22T20:04:34.882Z,156739.31
2022-11-22T20:07:03.850Z,156769.81
2022-11-22T20:09:32.687Z,156730.06
2022-11-22T20:12:01.052Z,156739.31
2022-11-22T20:14:29.306Z,156734.00
2022-11-22T20:16:57.539Z,156759.19
2022-11-22T20:19:28.625Z,156761.84
2022-11-22T20:22:00.782Z,156764.50
2022-11-22T20:24:31.109Z,156753.88
2022-11-22T20:26:59.167Z,156747.25
2022-11-22T20:29:28.062Z,156745.94
2022-11-22T20:31:56.822Z,156732.69
2022-11-22T20:34:25.447Z,156747.25
2022-11-22T20:36:54.841Z,156765.81
2022-11-22T20:39:23.146Z,156775.09
2022-11-22T20:42:05.922Z,156730.06
2022-11-22T20:44:39.783Z,156768.47
2022-11-22T20:47:09.348Z,156772.47
2022-11-22T20:49:42.392Z,156752.56
2022-11-22T20:52:13.683Z,156775.09
2022-11-22T20:54:42.842Z,156757.88
2022-11-22T20:57:11.039Z,156759.19
2022-11-22T20:59:39.527Z,156759.19
2022-11-22T21:02:09.259Z,156724.75
2022-11-22T21:04:38.136Z,156732.69
2022-11-22T21:07:05.969Z,156744.63
2022-11-22T21:09:34.597Z,156740.63
2022-11-22T21:12:02.357Z,156749.94
2022-11-22T21:14:31.118Z,156748.63
2022-11-22T21:17:16.358Z,156719.44
2022-11-22T21:19:48.111Z,156736.69
2022-11-22T21:22:16.622Z,156755.22
2022-11-22T21:24:45.408Z,156761.84
2022-11-22T21:27:13.433Z,156759.19
2022-11-22T21:29:42.109Z,156727.38
2022-11-22T21:32:10.461Z,156730.06
2022-11-22T21:34:39.875Z,156732.69
2022-11-22T21:37:08.896Z,156739.31
2022-11-22T21:39:37.510Z,156735.38
2022-11-22T21:42:05.496Z,156724.75
2022-11-22T21:44:34.222Z,156731.38
2022-11-22T21:47:03.857Z,156716.81
2022-11-22T21:49:32.417Z,156714.19
2022-11-22T21:52:00.854Z,156751.25
2022-11-22T21:54:29.812Z,156759.19
2022-11-22T21:57:02.636Z,156736.69
2022-11-22T21:59:32.664Z,156748.63
2022-11-22T22:02:00.901Z,156735.38
2022-11-22T22:04:29.319Z,156752.56
2022-11-22T22:06:57.412Z,156751.25
2022-11-22T22:09:25.703Z,156749.94
2022-11-22T22:11:54.175Z,156739.31
2022-11-22T22:14:23.085Z,156727.38
2022-11-22T22:16:51.473Z,156719.44
2022-11-22T22:19:20.230Z,156706.19
2022-11-22T22:21:51.829Z,156739.31
2022-11-22T22:24:20.583Z,156731.38
2022-11-22T22:26:49.919Z,156730.06
2022-11-22T22:29:19.120Z,156740.63
2022-11-22T22:31:47.304Z,156710.19
2022-11-22T22:34:16.896Z,156719.44
2022-11-22T22:36:45.657Z,156716.81
2022-11-22T22:39:14.190Z,156719.44
2022-11-22T22:41:42.129Z,156718.13
2022-11-22T22:44:10.678Z,156711.50
2022-11-22T22:46:38.673Z,156707.56
2022-11-22T22:53:10.185Z,156726.06
2022-11-22T22:55:39.574Z,156710.19
2022-11-22T22:58:10.470Z,156704.88
2022-11-22T23:00:40.106Z,156715.50
2022-11-22T23:03:08.092Z,156710.19
2022-11-22T23:05:39.474Z,156702.25
2022-11-22T23:08:07.959Z,156690.31
2022-11-22T23:10:36.817Z,156700.94
2022-11-22T23:13:06.445Z,156700.94
2022-11-22T23:15:56.798Z,156715.50
2022-11-22T23:18:23.412Z,156707.56
2022-11-22T23:20:52.068Z,156703.56
2022-11-22T23:23:19.979Z,156703.56
2022-11-22T23:25:49.629Z,156696.94
2022-11-22T23:28:18.093Z,156700.94
2022-11-22T23:30:46.488Z,156703.56
2022-11-22T23:33:14.777Z,156689.00
2022-11-22T23:35:42.981Z,156682.38
2022-11-22T23:38:10.896Z,156669.13
2022-11-22T23:40:39.576Z,156689.00
2022-11-22T23:43:07.986Z,156682.38
2022-11-22T23:45:36.636Z,156679.75
2022-11-22T23:48:04.493Z,156686.38
2022-11-22T23:50:37.190Z,156687.69
2022-11-22T23:53:05.842Z,156674.44
2022-11-22T23:55:34.358Z,156674.44
2022-11-22T23:58:02.237Z,156682.38
